Time;durP1;ratioP1;P1;durP2;ratioP2;P2;SDS_P1;SDS_P2;PMS_P1;PMS_P2;Temp;Humidity;BMP_temperature;BMP_pressure;BME280_temperature;BME280_humidity;BME280_pressure;Samples;Min_cycle;Max_cycle;Signal;HPM_P1;HPM_P2
2023/05/03 00:01:42;;;;;;;5.47;2.90;;;10.50;99.90;;;10.72;nan;101631.69;5017184;28;20633;-66
2023/05/03 00:04:09;;;;;;;3.30;2.80;;;10.50;99.90;;;10.67;nan;101644.16;5012359;28;21259;-66
2023/05/03 00:06:36;;;;;;;3.50;3.20;;;10.50;99.90;;;10.63;nan;101637.44;5031711;28;20632;-66
2023/05/03 00:09:03;;;;;;;3.40;2.77;;;10.50;99.90;;;10.59;nan;101634.16;5013632;28;21014;-66
2023/05/03 00:11:30;;;;;;;3.70;3.17;;;10.40;99.90;;;10.54;nan;101628.34;5013706;28;20629;-66
2023/05/03 00:13:57;;;;;;;3.60;3.30;;;10.40;99.90;;;10.51;nan;101638.13;5009643;28;20665;-66
2023/05/03 00:16:24;;;;;;;3.37;3.00;;;10.30;99.90;;;10.52;nan;101632.81;5019224;28;20632;-67
2023/05/03 00:18:51;;;;;;;5.67;2.30;;;10.30;99.90;;;10.47;nan;101632.25;5030420;28;20693;-67
2023/05/03 00:21:18;;;;;;;3.20;2.90;;;10.30;99.90;;;10.44;nan;101627.19;5028485;28;21144;-68
2023/05/03 00:23:46;;;;;;;2.97;2.63;;;10.20;99.90;;;10.43;nan;101628.13;5017080;28;20633;-66
2023/05/03 00:26:13;;;;;;;4.67;3.10;;;10.30;99.90;;;10.43;nan;101633.34;5015285;28;20636;-67
2023/05/03 00:28:40;;;;;;;2.17;2.07;;;10.20;99.90;;;10.43;nan;101630.75;5012450;28;20649;-66
2023/05/03 00:31:13;;;;;;;1.80;1.70;;;10.30;99.90;;;10.41;nan;101624.78;5015676;28;21145;-66
2023/05/03 00:33:40;;;;;;;3.07;2.63;;;10.20;99.90;;;10.34;nan;101623.41;5012894;28;21547;-67
2023/05/03 00:36:13;;;;;;;3.23;2.97;;;10.20;99.90;;;10.31;nan;101620.97;5024547;28;20625;-67
2023/05/03 00:38:41;;;;;;;1.83;1.73;;;10.10;99.90;;;10.26;nan;101625.63;5010759;28;20698;-67
2023/05/03 00:41:11;;;;;;;4.57;3.27;;;10.10;99.90;;;10.23;nan;101622.31;5014329;28;20626;-67
2023/05/03 00:43:41;;;;;;;3.30;2.30;;;10.00;99.90;;;10.19;nan;101618.19;5026650;28;20633;-69
2023/05/03 00:46:10;;;;;;;2.53;2.00;;;10.00;99.90;;;10.14;nan;101621.91;5013556;28;20636;-67
2023/05/03 00:48:47;;;;;;;2.67;2.47;;;9.90;99.90;;;10.15;nan;101622.75;5026495;28;20633;-68
2023/05/03 00:51:15;;;;;;;2.23;2.03;;;9.90;99.90;;;10.18;nan;101617.34;5007091;28;20642;-69
2023/05/03 00:53:42;;;;;;;3.23;2.03;;;10.00;99.90;;;10.14;nan;101613.22;5003729;28;20680;-65
2023/05/03 00:56:10;;;;;;;2.40;2.10;;;9.90;99.90;;;10.11;nan;101608.19;5008604;28;21299;-66
2023/05/03 00:58:39;;;;;;;2.27;2.07;;;9.90;99.90;;;10.05;nan;101606.69;5006043;28;20641;-68
2023/05/03 01:01:06;;;;;;;1.63;1.53;;;9.90;99.90;;;10.00;nan;101605.28;5004164;28;20660;-67
2023/05/03 01:03:36;;;;;;;3.53;2.47;;;9.80;99.90;;;9.98;nan;101596.72;5009861;28;20633;-67
2023/05/03 01:06:38;;;;;;;5.50;3.43;;;9.80;99.90;;;9.99;nan;101593.16;5010316;28;20637;-67
2023/05/03 01:09:21;;;;;;;3.80;3.17;;;9.80;99.90;;;9.96;nan;101598.56;5008247;28;20633;-67
2023/05/03 01:12:29;;;;;;;3.13;2.83;;;9.80;99.90;;;9.94;nan;101598.66;5017810;28;20640;-67
2023/05/03 01:15:26;;;;;;;4.83;2.60;;;9.70;99.90;;;9.90;nan;101598.88;4990506;28;20738;-66
2023/05/03 01:18:07;;;;;;;2.90;2.70;;;9.70;99.90;;;9.86;nan;101594.78;5000115;28;20641;-67
2023/05/03 01:20:37;;;;;;;3.73;2.47;;;9.60;99.90;;;9.87;nan;101601.66;5000143;28;20636;-67
2023/05/03 01:23:21;;;;;;;2.60;2.40;;;9.70;99.90;;;9.83;nan;101593.16;5012414;28;20679;-68
2023/05/03 01:25:53;;;;;;;2.80;2.50;;;9.70;99.90;;;9.80;nan;101597.69;5007460;28;20930;-65
2023/05/03 01:28:20;;;;;;;3.53;2.87;;;9.60;99.90;;;9.80;nan;101592.47;4993116;28;20630;-66
2023/05/03 01:30:49;;;;;;;3.63;3.33;;;9.60;99.90;;;9.75;nan;101599.72;5010990;28;20611;-65
2023/05/03 01:33:48;;;;;;;3.53;2.90;;;9.50;99.90;;;9.65;nan;101583.69;5011214;28;21338;-68
2023/05/03 01:36:31;;;;;;;3.77;2.97;;;9.50;99.90;;;9.67;nan;101588.84;5008920;28;20684;-66
2023/05/03 01:39:05;;;;;;;4.20;2.73;;;9.50;99.90;;;9.64;nan;101587.25;5010906;28;20610;-66
2023/05/03 01:41:34;;;;;;;3.10;2.87;;;9.40;99.90;;;9.64;nan;101581.19;5012016;28;21234;-68
2023/05/03 01:44:03;;;;;;;3.73;2.67;;;9.40;99.90;;;9.64;nan;101574.22;4988201;28;20726;-66
2023/05/03 01:46:30;;;;;;;3.50;2.90;;;9.50;99.90;;;9.63;nan;101576.88;5010474;28;21208;-67
2023/05/03 01:48:57;;;;;;;2.90;2.40;;;9.40;99.90;;;9.61;nan;101576.13;5010868;28;20648;-66
2023/05/03 01:51:25;;;;;;;3.00;2.73;;;9.40;99.90;;;9.58;nan;101577.16;5011320;28;20703;-67
2023/05/03 01:53:52;;;;;;;3.40;3.10;;;9.40;99.90;;;9.52;nan;101577.44;5010721;28;20746;-66
2023/05/03 01:56:20;;;;;;;3.53;2.97;;;9.40;99.90;;;9.50;nan;101583.69;5011142;28;20633;-66
2023/05/03 01:58:47;;;;;;;3.67;3.00;;;9.30;99.90;;;9.48;nan;101581.13;5010687;28;20656;-65
2023/05/03 02:01:14;;;;;;;5.40;3.10;;;9.30;99.90;;;9.45;nan;101593.50;5011768;28;20621;-66
2023/05/03 02:03:41;;;;;;;3.83;3.20;;;9.30;99.90;;;9.38;nan;101590.38;5014017;28;20637;-66
2023/05/03 02:06:08;;;;;;;3.33;2.63;;;9.20;99.90;;;9.37;nan;101592.13;5019332;28;20640;-66
2023/05/03 02:08:35;;;;;;;2.83;2.60;;;9.20;99.90;;;9.36;nan;101593.06;5010179;28;20999;-67
2023/05/03 02:11:02;;;;;;;9.23;2.60;;;9.10;99.90;;;9.31;nan;101583.78;5010884;28;20630;-66
2023/05/03 02:13:29;;;;;;;3.77;3.00;;;9.20;99.90;;;9.22;nan;101589.50;5008547;28;20665;-67
2023/05/03 02:15:56;;;;;;;3.97;3.03;;;9.10;99.90;;;9.21;nan;101598.19;5008268;28;21207;-67
2023/05/03 02:18:23;;;;;;;2.60;2.27;;;9.10;99.90;;;9.18;nan;101604.41;5030212;28;20609;-67
2023/05/03 02:20:50;;;;;;;2.40;2.20;;;9.00;99.90;;;9.18;nan;101603.56;5017124;28;20640;-66
2023/05/03 02:23:17;;;;;;;2.23;2.00;;;9.00;99.90;;;9.15;nan;101603.72;5031558;28;20640;-66
2023/05/03 02:25:44;;;;;;;3.40;3.10;;;9.00;99.90;;;9.12;nan;101604.72;4996624;28;20671;-67
2023/05/03 02:28:11;;;;;;;3.00;2.67;;;9.00;99.90;;;9.12;nan;101604.72;5011622;28;20625;-67
2023/05/03 02:30:38;;;;;;;3.53;2.83;;;9.00;99.90;;;9.05;nan;101602.50;5011339;28;20643;-68
2023/05/03 02:33:05;;;;;;;3.03;2.83;;;9.00;99.90;;;9.02;nan;101598.31;5011243;28;20669;-66
2023/05/03 02:35:32;;;;;;;4.47;3.17;;;8.90;99.90;;;8.92;nan;101601.44;5019489;28;20660;-66
2023/05/03 02:37:59;;;;;;;2.43;2.03;;;8.80;99.90;;;8.94;nan;101602.19;5016788;28;20634;-66
2023/05/03 02:40:26;;;;;;;2.40;2.20;;;8.80;99.90;;;8.89;nan;101604.19;5012478;28;20652;-67
2023/05/03 02:42:53;;;;;;;2.50;2.30;;;8.70;99.90;;;8.84;nan;101603.59;5009787;28;20690;-67
2023/05/03 02:45:20;;;;;;;2.43;2.33;;;8.70;99.90;;;8.81;nan;101608.94;5011211;28;21240;-67
2023/05/03 02:47:47;;;;;;;4.40;2.40;;;8.70;99.90;;;8.82;nan;101606.25;5012641;28;20633;-67
2023/05/03 02:50:14;;;;;;;5.73;3.43;;;8.70;99.90;;;8.83;nan;101605.34;5010536;28;21274;-67
2023/05/03 02:52:41;;;;;;;2.87;2.50;;;8.70;99.90;;;8.83;nan;101607.94;5007807;28;20676;-66
2023/05/03 02:55:08;;;;;;;3.50;2.80;;;8.70;99.90;;;8.81;nan;101614.13;5041451;22;20697;-68
2023/05/03 02:57:35;;;;;;;3.10;2.87;;;8.70;99.90;;;8.78;nan;101611.66;5005672;28;20633;-69
2023/05/03 03:00:04;;;;;;;3.20;2.87;;;8.70;99.90;;;8.80;nan;101610.69;5006606;28;20626;-70
2023/05/03 03:02:31;;;;;;;4.03;2.60;;;8.70;99.90;;;8.73;nan;101617.09;5007912;28;20629;-66
2023/05/03 03:04:59;;;;;;;5.00;3.80;;;8.60;99.90;;;8.62;nan;101609.00;5008972;28;20664;-67
2023/05/03 03:07:26;;;;;;;3.40;2.60;;;8.50;99.90;;;8.62;nan;101614.19;5010309;28;20633;-69
2023/05/03 03:09:53;;;;;;;3.40;2.27;;;8.50;99.90;;;8.58;nan;101615.25;5004571;28;20645;-68
2023/05/03 03:12:20;;;;;;;5.40;3.60;;;8.50;99.90;;;8.52;nan;101607.72;5000222;28;20645;-68
2023/05/03 03:14:47;;;;;;;2.83;2.63;;;8.40;99.90;;;8.51;nan;101606.91;5002033;28;20683;-68
2023/05/03 03:17:14;;;;;;;3.83;3.43;;;8.40;99.90;;;8.50;nan;101609.56;5000370;28;20635;-68
2023/05/03 03:19:41;;;;;;;2.13;1.93;;;8.40;99.90;;;8.46;nan;101602.81;5011004;28;20629;-69
2023/05/03 03:22:07;;;;;;;2.03;1.77;;;8.40;99.90;;;8.44;nan;101608.09;5001836;28;20629;-68
2023/05/03 03:24:35;;;;;;;2.30;2.10;;;8.30;99.90;;;8.42;nan;101596.94;5011087;28;21286;-70
2023/05/03 03:27:02;;;;;;;3.27;2.97;;;8.30;99.90;;;8.41;nan;101610.03;5010840;28;20641;-68
2023/05/03 03:29:31;;;;;;;4.10;3.37;;;8.30;99.90;;;8.41;nan;101599.63;5010636;28;20633;-67
2023/05/03 03:31:58;;;;;;;4.80;3.73;;;8.30;99.90;;;8.37;nan;101598.91;5010462;28;21041;-68
2023/05/03 03:34:25;;;;;;;3.00;2.67;;;8.30;99.90;;;8.37;nan;101598.06;5010283;28;20669;-68
2023/05/03 03:36:52;;;;;;;4.47;3.43;;;8.20;99.90;;;8.32;nan;101594.84;5011252;28;21227;-68
2023/05/03 03:39:19;;;;;;;2.83;2.60;;;8.20;99.90;;;8.28;nan;101598.50;5009819;28;20637;-69
2023/05/03 03:41:46;;;;;;;3.97;2.40;;;8.20;99.90;;;8.28;nan;101603.72;5002483;28;21258;-68
2023/05/03 03:44:13;;;;;;;3.90;2.93;;;8.10;99.90;;;8.27;nan;101602.84;5008173;28;21274;-68
2023/05/03 03:46:40;;;;;;;2.30;2.10;;;8.20;99.90;;;8.29;nan;101600.19;5010096;28;20633;-67
2023/05/03 03:49:07;;;;;;;4.57;2.80;;;8.20;99.90;;;8.27;nan;101600.25;5008915;28;20625;-68
2023/05/03 03:51:34;;;;;;;5.17;2.63;;;8.20;99.90;;;8.27;nan;101602.84;4996305;28;20696;-68
2023/05/03 03:54:01;;;;;;;5.23;3.57;;;8.20;99.90;;;8.26;nan;101595.13;4990973;28;20658;-68
2023/05/03 03:56:28;;;;;;;4.50;3.20;;;8.20;99.90;;;8.21;nan;101597.06;5009031;28;20629;-67
2023/05/03 03:58:55;;;;;;;4.13;3.40;;;8.10;99.90;;;8.21;nan;101602.25;5007035;28;20708;-69
2023/05/03 04:01:22;;;;;;;4.10;3.27;;;8.10;99.90;;;8.19;nan;101601.50;5009561;28;20642;-68
2023/05/03 04:03:49;;;;;;;5.03;3.10;;;8.10;99.90;;;8.19;nan;101609.28;5009442;28;20633;-68
2023/05/03 04:06:16;;;;;;;4.07;3.03;;;8.00;99.90;;;8.18;nan;101592.84;5010651;28;20670;-67
2023/05/03 04:08:43;;;;;;;3.53;2.70;;;8.10;99.90;;;8.22;nan;101596.16;5008525;28;20640;-67
2023/05/03 04:11:13;;;;;;;2.90;2.37;;;8.10;99.90;;;8.25;nan;101603.81;5011086;28;20644;-67
2023/05/03 04:13:40;;;;;;;3.33;2.90;;;8.10;99.90;;;8.29;nan;101607.97;5009250;28;21306;-66
2023/05/03 04:16:08;;;;;;;3.17;2.87;;;8.20;99.90;;;8.31;nan;101607.00;4999943;28;20657;-64
2023/05/03 04:18:35;;;;;;;3.90;2.80;;;8.10;99.90;;;8.32;nan;101610.44;5009455;28;21189;-67
2023/05/03 04:21:02;;;;;;;3.13;2.83;;;8.20;99.90;;;8.30;nan;101612.28;5012486;28;20683;-67
2023/05/03 04:23:30;;;;;;;3.20;2.90;;;8.20;99.90;;;8.30;nan;101622.69;5013881;28;21518;-66
2023/05/03 04:25:57;;;;;;;2.60;2.40;;;8.20;99.90;;;8.37;nan;101618.84;5013027;28;20679;-67
2023/05/03 04:28:25;;;;;;;3.13;2.83;;;8.20;99.90;;;8.39;nan;101610.06;5012725;28;21013;-68
2023/05/03 04:30:53;;;;;;;2.57;2.37;;;8.30;99.90;;;8.48;nan;101611.38;5013517;28;20637;-67
2023/05/03 04:33:20;;;;;;;2.90;2.70;;;8.40;99.90;;;8.58;nan;101607.44;5012627;28;20707;-67
2023/05/03 04:35:51;;;;;;;4.07;3.00;;;8.50;99.90;;;8.70;nan;101612.06;5012145;28;21076;-67
2023/05/03 04:38:18;;;;;;;3.87;3.57;;;8.60;99.90;;;8.72;nan;101604.16;5007244;28;21026;-67
2023/05/03 04:40:45;;;;;;;3.40;3.10;;;8.60;99.90;;;8.71;nan;101612.91;5010885;28;20673;-67
2023/05/03 04:43:12;;;;;;;8.30;3.07;;;8.60;99.90;;;8.75;nan;101611.84;5012724;28;21189;-68
2023/05/03 04:45:40;;;;;;;4.07;2.07;;;8.70;99.90;;;8.87;nan;101619.88;5012416;28;22056;-67
2023/05/03 04:48:08;;;;;;;2.57;2.37;;;8.70;99.90;;;9.00;nan;101614.91;5007919;28;20639;-67
2023/05/03 04:50:36;;;;;;;4.60;3.40;;;8.90;99.90;;;9.12;nan;101617.75;5010485;28;20713;-66
2023/05/03 04:53:03;;;;;;;2.70;2.47;;;9.00;99.90;;;9.17;nan;101620.13;5011774;28;20617;-67
2023/05/03 04:55:30;;;;;;;3.30;2.43;;;9.10;99.90;;;9.05;nan;101616.34;5013404;28;20661;-67
2023/05/03 04:57:57;;;;;;;8.03;3.00;;;9.00;99.90;;;9.02;nan;101610.47;5012865;28;20623;-69
2023/05/03 05:00:24;;;;;;;5.23;2.70;;;8.90;99.90;;;9.08;nan;101615.34;5009540;28;20625;-66
2023/05/03 05:02:51;;;;;;;4.50;3.20;;;9.00;99.90;;;9.26;nan;101620.47;5005238;28;20628;-66
2023/05/03 05:05:19;;;;;;;4.47;3.50;;;9.10;99.90;;;9.49;nan;101614.09;5011792;28;20661;-67
2023/05/03 05:07:46;;;;;;;2.30;2.10;;;9.40;99.90;;;9.75;nan;101613.56;5013326;28;21396;-67
2023/05/03 05:10:13;;;;;;;3.07;2.40;;;9.60;99.90;;;9.96;nan;101615.06;5012601;28;20668;-69
2023/05/03 05:12:40;;;;;;;3.63;3.30;;;9.80;99.90;;;10.09;nan;101616.03;5012101;28;20629;-68
2023/05/03 05:15:08;;;;;;;1.80;1.70;;;10.00;99.90;;;10.28;nan;101623.75;5011184;28;20677;-66
2023/05/03 05:17:35;;;;;;;4.77;3.57;;;10.10;99.90;;;10.41;nan;101616.09;5011765;28;20629;-67
2023/05/03 05:20:05;;;;;;;3.90;2.70;;;10.30;99.90;;;10.56;nan;101623.06;5012002;28;20723;-67
2023/05/03 05:22:33;;;;;;;2.90;2.63;;;10.40;99.90;;;10.67;nan;101634.56;5005985;28;20625;-68
2023/05/03 05:25:00;;;;;;;7.47;3.13;;;10.50;99.90;;;10.61;nan;101627.09;5003504;28;20657;-68
2023/05/03 05:27:27;;;;;;;5.53;2.50;;;10.50;99.90;;;10.67;nan;101629.34;5011373;28;20613;-67
2023/05/03 05:29:54;;;;;;;3.33;3.00;;;10.60;99.90;;;10.63;nan;101632.22;5006305;28;20649;-67
2023/05/03 05:32:21;;;;;;;3.80;3.20;;;10.50;99.90;;;10.69;nan;101630.09;5010396;28;21101;-68
2023/05/03 05:34:54;;;;;;;4.00;3.40;;;10.60;99.90;;;10.68;nan;101628.44;5002963;28;20675;-66
2023/05/03 05:37:22;;;;;;;4.27;1.77;;;10.60;99.90;;;10.84;nan;101639.66;5012135;28;20634;-66
2023/05/03 05:39:49;;;;;;;4.30;3.10;;;10.70;99.90;;;11.09;nan;101633.06;5012215;28;20622;-68
2023/05/03 05:42:16;;;;;;;3.67;3.00;;;10.90;99.90;;;11.21;nan;101627.94;5012867;28;20695;-66
2023/05/03 05:44:43;;;;;;;3.83;2.73;;;11.00;99.90;;;11.45;nan;101639.56;5010661;28;20660;-67
2023/05/03 05:47:10;;;;;;;4.27;3.10;;;11.20;99.90;;;11.60;nan;101643.88;5011796;28;21205;-67
2023/05/03 05:49:38;;;;;;;2.87;2.67;;;11.40;99.90;;;12.11;nan;101636.41;5011305;28;20634;-67
2023/05/03 05:52:04;;;;;;;3.33;2.63;;;11.80;99.90;;;12.53;nan;101645.94;5012499;28;20695;-67
2023/05/03 05:54:31;;;;;;;2.80;2.53;;;12.20;99.90;;;12.79;nan;101635.47;5010882;28;20735;-67
2023/05/03 05:56:59;;;;;;;3.83;3.07;;;12.50;99.90;;;13.05;nan;101642.47;5011244;28;20626;-67
2023/05/03 05:59:28;;;;;;;2.77;2.37;;;12.80;99.90;;;13.23;nan;101633.41;5010342;28;20630;-67
2023/05/03 06:01:56;;;;;;;2.17;2.00;;;13.00;99.90;;;13.62;nan;101647.38;5009915;28;20638;-66
2023/05/03 06:04:23;;;;;;;3.23;3.03;;;13.40;99.90;;;14.03;nan;101640.09;5009459;28;20676;-67
2023/05/03 06:06:49;;;;;;;6.97;3.43;;;13.80;99.90;;;14.41;nan;101640.88;5011063;28;20644;-65
2023/05/03 06:09:17;;;;;;;4.10;3.37;;;14.20;99.90;;;14.60;nan;101635.13;5012072;28;20636;-67
2023/05/03 06:11:49;;;;;;;3.70;2.93;;;14.50;99.90;;;14.74;nan;101627.91;5011896;28;20633;-67
2023/05/03 06:14:18;;;;;;;3.60;3.30;;;14.50;99.90;;;15.07;nan;101628.97;5011230;28;20649;-67
2023/05/03 06:16:45;;;;;;;5.93;3.80;;;14.90;99.90;;;15.60;nan;101627.56;5010555;28;20633;-68
2023/05/03 06:19:12;;;;;;;4.90;3.77;;;15.40;99.90;;;15.90;nan;101622.53;5010955;28;20660;-67
2023/05/03 06:21:39;;;;;;;4.80;3.70;;;15.70;99.90;;;16.19;nan;101627.19;5012252;28;20629;-67
2023/05/03 06:24:06;;;;;;;2.57;2.33;;;16.00;99.40;;;16.77;nan;101625.13;5011530;28;20694;-66
2023/05/03 06:26:33;;;;;;;1.93;1.80;;;16.50;98.40;;;17.41;nan;101631.16;5008493;28;20637;-67
2023/05/03 06:29:02;;;;;;;3.50;3.20;;;17.10;96.70;;;18.30;nan;101629.47;5009408;28;20629;-67
2023/05/03 06:31:29;;;;;;;3.87;2.97;;;18.00;95.20;;;19.10;nan;101624.78;5008878;28;20645;-67
2023/05/03 06:33:56;;;;;;;5.33;3.30;;;18.80;92.90;;;19.88;nan;101628.94;5007604;28;20661;-68
2023/05/03 06:36:24;;;;;;;3.13;2.50;;;19.60;90.70;;;20.48;nan;101635.47;5007310;28;20675;-67
2023/05/03 06:38:52;;;;;;;3.30;3.00;;;20.30;87.30;;;21.09;nan;101628.44;5004882;28;21205;-68
2023/05/03 06:41:19;;;;;;;3.90;3.40;;;21.00;82.90;;;21.76;nan;101629.53;5008323;28;20630;-69
2023/05/03 06:43:46;;;;;;;3.60;3.23;;;21.50;79.90;;;22.35;nan;101632.94;5001277;28;20682;-67
2023/05/03 06:46:13;;;;;;;3.53;3.23;;;22.20;76.00;;;22.59;nan;101634.88;5005782;28;20660;-68
2023/05/03 06:48:40;;;;;;;6.33;3.83;;;22.40;75.00;;;23.21;nan;101643.19;5009525;28;21196;-67
2023/05/03 06:51:07;;;;;;;4.80;3.10;;;22.90;72.80;;;23.64;nan;101645.47;5008633;28;20645;-67
2023/05/03 06:53:34;;;;;;;4.70;3.23;;;23.40;70.30;;;23.80;nan;101642.78;5010000;28;20643;-67
2023/05/03 06:56:02;;;;;;;4.13;3.40;;;23.70;68.80;;;23.89;nan;101644.41;5009911;28;20673;-67
2023/05/03 06:58:29;;;;;;;4.10;3.30;;;23.90;67.30;;;24.23;nan;101644.97;5008670;28;20683;-69
2023/05/03 07:00:56;;;;;;;3.90;3.53;;;24.10;65.40;;;24.55;nan;101642.09;5010294;28;20634;-69
2023/05/03 07:03:23;;;;;;;4.60;3.77;;;24.50;64.70;;;24.47;nan;101642.16;5009822;28;20613;-70
2023/05/03 07:05:50;;;;;;;6.60;3.77;;;24.50;64.20;;;24.76;nan;101638.00;5008834;28;20667;-67
2023/05/03 07:08:17;;;;;;;4.40;4.00;;;24.70;63.30;;;24.89;nan;101640.91;5003194;28;20638;-67
2023/05/03 07:10:44;;;;;;;5.00;3.10;;;24.90;62.30;;;25.16;nan;101632.31;5001370;28;20639;-66
2023/05/03 07:13:11;;;;;;;4.20;3.80;;;25.10;62.00;;;25.31;nan;101639.34;5009661;28;20630;-66
2023/05/03 07:15:38;;;;;;;4.50;3.70;;;25.40;60.80;;;25.57;nan;101638.13;5007712;28;20692;-66
2023/05/03 07:18:06;;;;;;;11.27;3.83;;;25.60;60.00;;;25.13;nan;101633.50;5009339;28;20629;-67
2023/05/03 07:20:32;;;;;;;4.73;3.97;;;25.30;59.50;;;25.15;nan;101631.47;5009628;28;20637;-66
2023/05/03 07:23:00;;;;;;;4.90;4.20;;;25.20;59.80;;;24.87;nan;101633.06;5007595;28;20987;-67
2023/05/03 07:25:27;;;;;;;3.43;3.13;;;24.90;59.60;;;23.98;nan;101630.03;4998876;28;20661;-67
2023/05/03 07:27:54;;;;;;;5.73;3.70;;;24.40;59.80;;;23.68;nan;101620.97;5001088;28;21244;-66
2023/05/03 07:30:21;;;;;;;5.30;4.00;;;23.90;61.50;;;24.20;nan;101625.78;5009622;28;20667;-66
2023/05/03 07:32:49;;;;;;;4.30;3.80;;;24.20;61.20;;;24.47;nan;101619.97;5010322;28;21217;-66
2023/05/03 07:35:16;;;;;;;5.00;3.57;;;24.60;60.20;;;25.25;nan;101620.53;5010475;28;20668;-68
2023/05/03 07:37:43;;;;;;;5.77;3.50;;;25.20;60.00;;;25.84;nan;101627.59;5007921;28;21215;-65
2023/05/03 07:40:11;;;;;;;4.40;4.00;;;25.90;59.00;;;25.84;nan;101626.78;4998346;28;20638;-68
2023/05/03 07:42:38;;;;;;;3.63;3.33;;;26.00;58.50;;;25.96;nan;101617.28;4990093;28;20991;-65
2023/05/03 07:45:05;;;;;;;6.27;3.73;;;26.10;57.70;;;25.71;nan;101630.09;4992752;28;20706;-66
2023/05/03 07:47:36;;;;;;;4.00;3.70;;;26.00;57.70;;;25.34;nan;101622.94;4997979;28;20712;-68
2023/05/03 07:50:04;;;;;;;4.30;3.57;;;25.80;57.30;;;25.00;nan;101622.59;5008344;28;21019;-67
2023/05/03 07:52:41;;;;;;;2.93;2.73;;;25.40;58.20;;;25.29;nan;101613.81;5009101;28;20634;-66
2023/05/03 07:55:08;;;;;;;4.57;3.43;;;25.60;58.10;;;25.70;nan;101616.94;5010865;28;20672;-68
2023/05/03 07:57:35;;;;;;;5.33;4.20;;;26.00;57.30;;;26.14;nan;101623.91;5012216;28;20637;-69
2023/05/03 08:00:04;;;;;;;4.53;4.13;;;26.40;56.60;;;26.90;nan;101614.41;5008348;28;20692;-66
2023/05/03 08:02:32;;;;;;;5.20;3.73;;;27.10;56.30;;;27.41;nan;101620.41;5012784;28;20645;-68
2023/05/03 08:04:59;;;;;;;5.30;3.80;;;27.70;55.40;;;27.45;nan;101622.50;5014011;28;20652;-68
2023/05/03 08:07:27;;;;;;;3.87;3.57;;;27.90;55.00;;;28.03;nan;101617.66;5013364;28;20645;-67
2023/05/03 08:09:55;;;;;;;3.47;2.67;;;28.40;54.50;;;28.66;nan;101630.69;5013214;28;20637;-68
2023/05/03 08:12:25;;;;;;;4.07;3.60;;;29.00;53.70;;;28.71;nan;101622.84;4997100;28;20637;-68
2023/05/03 08:14:54;;;;;;;4.17;3.87;;;29.30;52.50;;;29.31;nan;101629.06;5013895;28;20672;-68
2023/05/03 08:17:22;;;;;;;4.20;3.60;;;29.70;52.30;;;29.55;nan;101617.66;5013682;28;20679;-68
2023/05/03 08:19:49;;;;;;;3.63;3.43;;;30.00;51.60;;;29.73;nan;101617.81;5013628;28;20633;-68
2023/05/03 08:22:17;;;;;;;4.50;4.10;;;30.40;50.70;;;30.60;nan;101618.06;5012312;28;20630;-68
2023/05/03 08:24:43;;;;;;;4.13;3.67;;;31.00;50.60;;;31.44;nan;101621.09;5029687;28;20718;-69
2023/05/03 08:27:11;;;;;;;3.60;3.30;;;31.80;49.60;;;31.50;nan;101622.91;4996871;28;20637;-69
2023/05/03 08:29:38;;;;;;;3.60;3.37;;;32.00;48.90;;;31.47;nan;101623.38;5013927;28;20637;-69
2023/05/03 08:32:05;;;;;;;4.50;4.10;;;32.20;48.20;;;31.53;nan;101622.47;5013026;28;20632;-69
2023/05/03 08:34:32;;;;;;;3.90;3.60;;;32.00;48.10;;;31.69;nan;101626.47;5011988;28;21229;-67
2023/05/03 08:36:59;;;;;;;4.00;3.47;;;32.20;48.00;;;31.74;nan;101624.72;4999712;28;20700;-64
2023/05/03 08:39:26;;;;;;;4.83;4.43;;;32.20;47.70;;;32.30;nan;101624.44;5009781;28;20637;-67
2023/05/03 08:41:54;;;;;;;4.43;4.03;;;32.80;47.20;;;32.98;nan;101618.63;5002187;28;20620;-65
2023/05/03 08:44:22;;;;;;;4.17;3.73;;;33.30;46.70;;;33.49;nan;101616.06;5007576;28;21231;-67
2023/05/03 08:46:50;;;;;;;3.83;3.63;;;33.90;46.00;;;33.81;nan;101611.09;5006169;28;20677;-64
2023/05/03 08:49:17;;;;;;;4.07;3.77;;;34.30;45.30;;;33.70;nan;101622.75;5002063;28;20649;-65
2023/05/03 08:51:47;;;;;;;4.50;4.10;;;34.30;45.30;;;33.93;nan;101618.13;5010021;28;20646;-68
2023/05/03 08:54:15;;;;;;;3.60;3.40;;;34.50;45.30;;;33.48;nan;101620.66;5011596;28;20634;-67
2023/05/03 08:56:43;;;;;;;4.53;4.23;;;34.30;44.30;;;33.54;nan;101618.94;5030987;23;20759;-66
2023/05/03 08:59:10;;;;;;;4.50;4.20;;;34.20;44.50;;;33.72;nan;101617.94;5004926;28;20898;-68
2023/05/03 09:01:40;;;;;;;4.10;3.80;;;34.40;44.30;;;34.42;nan;101624.78;5008328;28;20610;-66
2023/05/03 09:04:08;;;;;;;4.00;3.70;;;34.80;44.30;;;34.03;nan;101615.63;5012384;28;20651;-67
2023/05/03 09:06:36;;;;;;;4.43;4.00;;;34.60;43.90;;;33.04;nan;101610.44;4997036;28;21243;-67
2023/05/03 09:09:08;;;;;;;4.17;3.87;;;33.80;44.30;;;33.37;nan;101616.06;4993242;28;20661;-67
2023/05/03 09:11:38;;;;;;;2.27;2.17;;;33.80;44.50;;;34.36;nan;101617.63;4993059;28;20661;-67
2023/05/03 09:14:17;;;;;;;4.50;4.13;;;34.50;44.20;;;34.94;nan;101612.69;4986476;28;20637;-66
2023/05/03 09:16:45;;;;;;;4.07;3.77;;;35.40;43.40;;;35.05;nan;101617.22;4989933;28;20700;-65
2023/05/03 09:19:14;;;;;;;5.07;4.63;;;35.50;43.00;;;34.69;nan;101620.38;4992096;28;21601;-67
2023/05/03 09:21:45;;;;;;;3.83;3.53;;;35.40;42.70;;;34.95;nan;101632.47;4994049;28;20607;-66
2023/05/03 09:24:18;;;;;;;3.50;3.30;;;35.40;42.90;;;35.34;nan;101617.09;4987454;28;20634;-66
2023/05/03 09:26:48;;;;;;;3.63;3.43;;;35.90;42.50;;;35.97;nan;101619.34;4993688;28;20661;-67
2023/05/03 09:29:34;;;;;;;3.97;3.63;;;36.30;42.30;;;35.59;nan;101623.72;4989350;28;20640;-68
2023/05/03 09:32:05;;;;;;;3.73;3.50;;;36.30;42.20;;;35.78;nan;101613.34;4985555;28;21276;-66
2023/05/03 09:34:34;;;;;;;4.30;2.60;;;36.20;42.20;;;36.39;nan;101609.44;4984963;28;21245;-66
2023/05/03 09:37:01;;;;;;;4.20;3.90;;;36.80;41.70;;;36.28;nan;101605.00;4991482;28;21082;-67
2023/05/03 09:39:28;;;;;;;4.03;3.80;;;37.10;41.30;;;36.29;nan;101609.38;4988139;28;20696;-65
2023/05/03 09:41:55;;;;;;;4.60;3.90;;;36.80;41.60;;;36.63;nan;101604.53;4992328;28;20635;-67
2023/05/03 09:44:53;;;;;;;4.00;3.70;;;37.00;41.60;;;36.12;nan;101593.13;4989252;28;20637;-66
2023/05/03 09:47:20;;;;;;;3.63;3.40;;;37.00;41.10;;;35.83;nan;101589.00;4981650;28;21202;-67
2023/05/03 09:49:47;;;;;;;4.97;4.57;;;36.50;41.50;;;35.97;nan;101598.41;4983050;28;20639;-66
2023/05/03 09:52:14;;;;;;;3.50;3.30;;;36.50;41.70;;;35.70;nan;101589.38;4988428;28;21037;-65
2023/05/03 09:54:42;;;;;;;4.00;3.70;;;36.30;42.20;;;35.17;nan;101581.88;4989524;28;20670;-66
2023/05/03 09:57:09;;;;;;;4.20;3.90;;;35.90;42.20;;;35.48;nan;101585.84;4989895;28;20670;-65
2023/05/03 09:59:38;;;;;;;4.03;3.73;;;35.90;42.20;;;35.04;nan;101582.22;4990343;28;20999;-64
2023/05/03 10:02:07;;;;;;;3.70;3.40;;;35.70;42.30;;;34.54;nan;101581.38;4991518;28;20626;-65
2023/05/03 10:04:43;;;;;;;4.17;3.77;;;35.10;42.20;;;33.95;nan;101569.94;4990558;28;20633;-64
2023/05/03 10:07:16;;;;;;;4.30;3.90;;;34.50;42.80;;;34.05;nan;101558.53;4985669;28;20650;-65
2023/05/03 10:09:46;;;;;;;4.23;3.83;;;34.20;43.30;;;33.81;nan;101570.50;4986542;28;20627;-65
2023/05/03 10:12:17;;;;;;;4.20;3.90;;;33.80;43.70;;;32.97;nan;101557.53;4991625;28;20621;-64
2023/05/03 10:14:46;;;;;;;2.60;2.40;;;32.90;44.40;;;31.51;nan;101557.13;4990017;28;20674;-64
2023/05/03 10:17:25;;;;;;;4.10;3.80;;;31.70;44.90;;;30.84;nan;101546.38;4986615;28;21040;-65
2023/05/03 10:20:42;;;;;;;5.60;4.10;;;30.70;46.00;;;29.59;nan;101546.25;4987340;28;20684;-65
2023/05/03 10:23:13;;;;;;;3.30;2.97;;;29.50;47.30;;;28.47;nan;101548.22;4978188;28;20623;-66
2023/05/03 10:26:06;;;;;;;5.00;3.27;;;28.40;48.00;;;26.28;nan;101536.59;4991331;28;20662;-70
2023/05/03 10:28:34;;;;;;;5.70;3.73;;;26.50;50.00;;;25.29;nan;101531.00;4987388;28;20692;-66
2023/05/03 10:31:02;;;;;;;3.73;3.37;;;25.20;52.20;;;24.66;nan;101529.59;4988855;28;20636;-66
2023/05/03 10:33:36;;;;;;;3.03;2.50;;;24.50;53.50;;;24.26;nan;101529.91;4990992;28;20728;-66
2023/05/03 10:36:09;;;;;;;5.40;4.70;;;24.00;54.10;;;23.73;nan;101522.72;4986327;28;20681;-66
2023/05/03 10:38:36;;;;;;;2.17;1.97;;;23.60;54.90;;;23.07;nan;101523.09;4984602;28;20643;-67
2023/05/03 10:41:05;;;;;;;3.30;1.93;;;22.90;56.00;;;22.93;nan;101533.59;4991490;28;20630;-65